createdAt,value
2023-03-20T00:02:27.805Z,7.21
2023-03-20T00:04:56.494Z,7.19
2023-03-20T00:07:24.756Z,7.18
2023-03-20T00:09:53.541Z,7.11
2023-03-20T00:12:27.440Z,7.06
2023-03-20T00:14:56.233Z,6.95
2023-03-20T00:17:24.429Z,6.98
2023-03-20T00:19:52.681Z,6.96
2023-03-20T00:22:20.885Z,7.01
2023-03-20T00:24:49.690Z,7.04
2023-03-20T00:27:19.574Z,7.05
2023-03-20T00:29:49.363Z,7.14
2023-03-20T00:32:18.563Z,7.12
2023-03-20T00:34:47.004Z,7.18
2023-03-20T00:37:15.741Z,7.18
2023-03-20T00:39:44.576Z,7.17
2023-03-20T00:42:21.413Z,7.17
2023-03-20T00:44:54.169Z,7.18
2023-03-20T00:47:28.140Z,7.14
2023-03-20T00:49:58.156Z,7.17
2023-03-20T00:52:26.517Z,7.12
2023-03-20T00:54:55.169Z,7.04
2023-03-20T00:57:27.316Z,7.05
2023-03-20T01:00:01.511Z,7.06
2023-03-20T01:02:31.414Z,7.07
2023-03-20T01:05:00.912Z,7.07
2023-03-20T01:07:29.654Z,7.12
2023-03-20T01:09:57.955Z,7.11
2023-03-20T01:12:26.752Z,7.09
2023-03-20T01:14:59.529Z,7.17
2023-03-20T01:17:30.164Z,7.01
2023-03-20T01:19:58.679Z,6.96
2023-03-20T01:22:27.262Z,6.88
2023-03-20T01:24:55.900Z,6.95
2023-03-20T01:27:24.423Z,6.91
2023-03-20T01:29:52.614Z,6.85
2023-03-20T01:32:22.234Z,6.82
2023-03-20T01:34:51.494Z,6.77
2023-03-20T01:37:25.521Z,6.68
2023-03-20T01:39:54.171Z,6.71
2023-03-20T01:42:22.750Z,6.70
2023-03-20T01:44:51.416Z,6.68
2023-03-20T01:47:23.679Z,6.69
2023-03-20T01:50:22.654Z,6.72
2023-03-20T01:52:53.922Z,6.76
2023-03-20T01:55:23.129Z,6.88
2023-03-20T01:57:56.587Z,6.87
2023-03-20T02:00:25.118Z,6.90
2023-03-20T02:02:56.224Z,6.85
2023-03-20T02:05:25.256Z,6.96
2023-03-20T02:08:04.077Z,6.97
2023-03-20T02:10:32.873Z,6.97
2023-03-20T02:13:04.786Z,6.90
2023-03-20T02:15:33.948Z,6.98
2023-03-20T02:18:04.342Z,7.02
2023-03-20T02:20:47.456Z,7.03
2023-03-20T02:23:48.762Z,7.06
2023-03-20T02:26:53.604Z,6.98
2023-03-20T02:29:54.979Z,6.98
2023-03-20T02:33:08.844Z,6.86
2023-03-20T02:36:22.500Z,6.82
2023-03-20T02:39:21.314Z,6.81
2023-03-20T02:41:55.914Z,6.82
2023-03-20T02:44:33.197Z,6.86
2023-03-20T02:47:05.544Z,6.86
2023-03-20T02:49:51.832Z,6.94
2023-03-20T02:52:27.476Z,6.95
2023-03-20T02:55:07.585Z,6.98
2023-03-20T02:57:44.975Z,6.98
2023-03-20T03:00:17.245Z,7.05
2023-03-20T03:02:52.426Z,6.99
2023-03-20T03:05:24.129Z,6.99
2023-03-20T03:07:57.425Z,6.98
2023-03-20T03:10:30.509Z,6.97
2023-03-20T03:13:02.400Z,6.96
2023-03-20T03:15:35.156Z,6.97
2023-03-20T03:18:06.604Z,6.97
2023-03-20T03:20:37.751Z,6.98
2023-03-20T03:23:07.464Z,7.07
2023-03-20T03:25:41.888Z,7.12
2023-03-20T03:28:22.655Z,7.05
2023-03-20T03:30:53.910Z,6.96
2023-03-20T03:33:25.387Z,6.97
2023-03-20T03:36:03.795Z,6.96
2023-03-20T03:38:39.202Z,6.91
2023-03-20T03:41:21.134Z,6.89
2023-03-20T03:43:59.212Z,6.93
2023-03-20T03:46:36.584Z,6.96
2023-03-20T03:49:07.259Z,6.97
2023-03-20T03:51:40.938Z,6.97
2023-03-20T03:54:12.650Z,7.00
2023-03-20T03:56:46.297Z,6.92
2023-03-20T03:59:21.139Z,6.96
2023-03-20T04:01:53.677Z,6.96
2023-03-20T04:04:23.648Z,6.88
2023-03-20T04:06:52.320Z,6.86
2023-03-20T04:09:21.235Z,6.89
2023-03-20T04:11:53.291Z,6.93
2023-03-20T04:14:22.089Z,6.92
2023-03-20T04:16:50.423Z,6.96
2023-03-20T04:19:18.736Z,6.98
2023-03-20T04:21:47.258Z,6.99
2023-03-20T04:24:15.615Z,7.00
2023-03-20T04:26:44.162Z,6.93
2023-03-20T04:29:14.419Z,6.99
2023-03-20T04:31:42.669Z,7.00
2023-03-20T04:34:11.658Z,6.95
2023-03-20T04:36:40.047Z,6.94
2023-03-20T04:39:08.328Z,6.82
2023-03-20T04:41:36.555Z,6.82
2023-03-20T04:44:05.103Z,6.78
2023-03-20T04:46:35.063Z,6.75
2023-03-20T04:49:04.353Z,6.72
2023-03-20T04:51:33.110Z,6.62
2023-03-20T04:54:01.908Z,6.66
2023-03-20T04:56:30.602Z,6.65
2023-03-20T04:58:58.882Z,6.59
2023-03-20T05:01:27.476Z,6.62
2023-03-20T05:04:01.092Z,6.65
2023-03-20T05:06:29.955Z,6.68
2023-03-20T05:08:59.272Z,6.63
2023-03-20T05:11:27.911Z,6.65
2023-03-20T05:13:56.906Z,6.63
2023-03-20T05:16:25.935Z,6.64
2023-03-20T05:18:55.198Z,6.63
2023-03-20T05:21:25.212Z,6.64
2023-03-20T05:23:54.161Z,6.68
2023-03-20T05:26:23.237Z,6.67
2023-03-20T05:28:52.324Z,6.70
2023-03-20T05:31:21.127Z,6.72
2023-03-20T05:33:49.498Z,6.71
2023-03-20T05:36:18.297Z,6.73
2023-03-20T05:38:48.696Z,6.72
2023-03-20T05:41:17.807Z,6.77
2023-03-20T05:43:46.507Z,6.83
2023-03-20T05:46:14.956Z,6.73
2023-03-20T05:48:43.434Z,6.72
2023-03-20T05:51:12.118Z,6.78
2023-03-20T05:53:40.734Z,6.81
2023-03-20T05:56:12.094Z,6.87
2023-03-20T05:58:41.107Z,6.87
2023-03-20T06:01:10.218Z,6.79
2023-03-20T06:03:38.669Z,6.75
2023-03-20T06:06:07.957Z,6.78
2023-03-20T06:08:36.764Z,6.79
2023-03-20T06:11:05.285Z,6.86
2023-03-20T06:13:35.688Z,6.93
2023-03-20T06:16:05.475Z,6.94
2023-03-20T06:18:34.016Z,7.01
2023-03-20T06:21:03.131Z,7.02
2023-03-20T06:23:31.779Z,7.06
2023-03-20T06:26:00.341Z,7.04
2023-03-20T06:28:28.786Z,7.18
2023-03-20T06:31:01.357Z,7.20
2023-03-20T06:33:30.012Z,7.24
2023-03-20T06:35:59.202Z,7.33
2023-03-20T06:38:27.922Z,7.39
2023-03-20T06:40:56.394Z,7.39
2023-03-20T06:43:25.262Z,7.47
2023-03-20T06:45:54.112Z,7.47
2023-03-20T06:48:23.803Z,7.52
2023-03-20T06:50:53.150Z,7.51
2023-03-20T06:53:23.009Z,7.57
2023-03-20T06:55:52.232Z,7.61
2023-03-20T06:58:21.026Z,7.67
2023-03-20T07:00:49.465Z,7.69
2023-03-20T07:03:18.499Z,7.64
2023-03-20T07:05:49.040Z,7.69
2023-03-20T07:08:17.803Z,7.72
2023-03-20T07:10:46.699Z,7.74
2023-03-20T07:13:15.508Z,7.81
2023-03-20T07:16:01.236Z,7.86
2023-03-20T07:18:32.551Z,7.85
2023-03-20T07:21:05.957Z,7.96
2023-03-20T07:23:35.923Z,8.11
2023-03-20T07:26:05.892Z,8.22
2023-03-20T07:28:34.171Z,8.35
2023-03-20T07:31:03.548Z,8.51
2023-03-20T07:33:33.334Z,8.61
2023-03-20T07:36:03.139Z,8.66
2023-03-20T07:38:33.094Z,8.84
2023-03-20T07:41:01.845Z,8.80
2023-03-20T07:43:30.375Z,8.80
2023-03-20T07:45:59.784Z,8.87
2023-03-20T07:48:28.359Z,8.81
2023-03-20T07:50:57.046Z,8.94
2023-03-20T07:53:26.702Z,9.05
2023-03-20T07:55:55.198Z,8.95
2023-03-20T07:58:23.771Z,9.12
2023-03-20T08:00:52.365Z,9.04
2023-03-20T08:03:21.048Z,9.05
2023-03-20T08:05:50.252Z,9.11
2023-03-20T08:08:19.444Z,9.11
2023-03-20T08:10:49.571Z,9.11
2023-03-20T08:13:17.922Z,9.09
2023-03-20T08:15:48.139Z,9.24
2023-03-20T08:18:16.431Z,9.34
2023-03-20T08:20:44.917Z,9.33
2023-03-20T08:23:13.552Z,9.43
2023-03-20T08:25:42.304Z,9.48
2023-03-20T08:28:12.025Z,9.58
2023-03-20T08:30:40.330Z,9.60
2023-03-20T08:33:08.753Z,9.52
2023-03-20T08:35:37.477Z,9.48
2023-03-20T08:38:06.446Z,9.52
2023-03-20T08:40:35.019Z,9.64
2023-03-20T08:43:03.947Z,9.65
2023-03-20T08:45:33.733Z,9.88
2023-03-20T08:48:02.052Z,9.99
2023-03-20T08:50:30.355Z,9.96
2023-03-20T08:52:59.028Z,10.16
2023-03-20T08:55:27.444Z,10.08
2023-03-20T08:57:57.673Z,10.14
2023-03-20T09:00:27.899Z,10.13
2023-03-20T09:02:57.809Z,10.16
2023-03-20T09:05:26.205Z,10.14
2023-03-20T09:07:55.989Z,10.22
2023-03-20T09:10:24.255Z,10.45
2023-03-20T09:12:52.818Z,10.51
2023-03-20T09:15:21.714Z,10.04
2023-03-20T09:17:50.078Z,10.05
2023-03-20T09:20:19.848Z,9.99
2023-03-20T09:22:48.030Z,10.07
2023-03-20T09:25:16.960Z,10.10
2023-03-20T09:27:45.675Z,10.15
2023-03-20T09:30:15.122Z,10.14
2023-03-20T09:32:43.622Z,10.23
2023-03-20T09:35:11.958Z,10.28
2023-03-20T09:37:41.635Z,10.39
2023-03-20T09:40:20.295Z,10.79
2023-03-20T09:42:54.306Z,10.98
2023-03-20T09:45:26.944Z,11.19
2023-03-20T09:48:04.520Z,11.01
2023-03-20T09:50:37.846Z,11.23
2023-03-20T09:53:13.042Z,11.26
2023-03-20T09:55:43.172Z,11.29
2023-03-20T09:58:16.493Z,10.77
2023-03-20T10:00:47.777Z,10.86
2023-03-20T10:03:22.718Z,11.10
2023-03-20T10:05:57.504Z,11.01
2023-03-20T10:08:32.058Z,11.08
2023-03-20T10:11:13.278Z,10.91
2023-03-20T10:13:56.151Z,10.84
2023-03-20T10:16:41.170Z,10.80
2023-03-20T10:19:19.128Z,10.98
2023-03-20T10:21:50.532Z,11.01
2023-03-20T10:24:23.991Z,10.96
2023-03-20T10:26:54.670Z,11.19
2023-03-20T10:29:31.691Z,11.24
2023-03-20T10:32:07.560Z,11.18
2023-03-20T10:34:55.419Z,11.25
2023-03-20T10:37:39.674Z,11.39
2023-03-20T10:40:28.223Z,11.19
2023-03-20T10:43:00.950Z,11.25
2023-03-20T10:45:37.039Z,11.17
2023-03-20T10:48:14.702Z,11.31
2023-03-20T10:50:47.171Z,11.20
2023-03-20T10:53:28.051Z,11.30
2023-03-20T10:56:05.595Z,11.34
2023-03-20T10:58:38.789Z,11.32
2023-03-20T11:01:08.445Z,11.44
2023-03-20T11:03:40.049Z,11.55
2023-03-20T11:06:17.772Z,11.46
2023-03-20T11:08:53.160Z,11.06
2023-03-20T11:11:29.007Z,11.43
2023-03-20T11:14:00.216Z,11.64
2023-03-20T11:16:34.505Z,11.55
2023-03-20T11:19:09.090Z,11.58
2023-03-20T11:21:47.122Z,11.40
2023-03-20T11:24:27.758Z,11.46
2023-03-20T11:27:09.647Z,11.86
2023-03-20T11:29:39.271Z,11.65
2023-03-20T11:32:19.650Z,11.91
2023-03-20T11:34:52.615Z,11.67
2023-03-20T11:37:25.923Z,11.90
2023-03-20T11:40:02.842Z,11.88
2023-03-20T11:42:34.395Z,11.60
2023-03-20T11:45:05.999Z,11.62
2023-03-20T11:47:36.849Z,11.53
2023-03-20T11:50:07.826Z,11.80
2023-03-20T11:52:39.340Z,12.10
2023-03-20T11:55:25.134Z,12.11
2023-03-20T11:57:59.739Z,12.30
2023-03-20T12:00:31.868Z,12.27
2023-03-20T12:03:00.424Z,12.20
2023-03-20T12:05:36.119Z,12.30
2023-03-20T12:08:11.120Z,12.48
2023-03-20T12:10:43.305Z,12.02
2023-03-20T12:13:19.209Z,11.99
2023-03-20T12:15:53.148Z,12.16
2023-03-20T12:18:30.224Z,12.27
2023-03-20T12:21:08.786Z,11.96
2023-03-20T12:23:42.188Z,11.54
2023-03-20T12:26:14.523Z,12.05
2023-03-20T12:28:52.007Z,12.10
2023-03-20T12:31:28.584Z,11.98
2023-03-20T12:34:04.608Z,11.83
2023-03-20T12:36:36.370Z,11.63
2023-03-20T12:39:08.319Z,11.93
2023-03-20T12:41:48.676Z,11.97
2023-03-20T12:44:39.467Z,11.81
2023-03-20T12:47:27.621Z,11.90
2023-03-20T12:50:05.446Z,11.88
2023-03-20T12:52:46.199Z,12.04
2023-03-20T12:55:27.246Z,12.08
2023-03-20T12:58:13.498Z,11.91
2023-03-20T13:00:50.430Z,11.74
2023-03-20T13:03:35.457Z,11.69
2023-03-20T13:06:12.044Z,11.49
2023-03-20T13:09:06.942Z,11.50
2023-03-20T13:11:44.904Z,11.31
2023-03-20T13:14:22.732Z,11.25
2023-03-20T13:16:59.558Z,11.13
2023-03-20T13:19:35.577Z,11.09
2023-03-20T13:22:12.020Z,11.22
2023-03-20T13:24:46.038Z,11.16
2023-03-20T13:27:32.588Z,11.19
2023-03-20T13:30:08.915Z,11.12
2023-03-20T13:32:52.723Z,11.20
2023-03-20T13:35:37.264Z,11.26
2023-03-20T13:38:13.555Z,11.29
2023-03-20T13:40:44.913Z,11.20
2023-03-20T13:43:25.608Z,11.14
2023-03-20T13:45:58.527Z,11.27
2023-03-20T13:48:33.547Z,11.46
2023-03-20T13:51:11.987Z,11.47
2023-03-20T13:53:51.551Z,11.52
2023-03-20T13:56:33.849Z,11.73
2023-03-20T13:59:33.477Z,11.75
2023-03-20T14:02:13.585Z,11.85
2023-03-20T14:04:44.797Z,11.68
2023-03-20T14:07:30.936Z,11.48
2023-03-20T14:09:59.321Z,11.75
2023-03-20T14:12:33.560Z,11.64
2023-03-20T14:15:02.299Z,11.79
2023-03-20T14:17:32.566Z,11.57
2023-03-20T14:20:14.248Z,11.52
2023-03-20T14:22:43.545Z,11.44
2023-03-20T14:25:21.028Z,11.67
2023-03-20T14:28:00.728Z,11.64
2023-03-20T14:30:50.266Z,11.76
2023-03-20T14:33:33.224Z,11.64
2023-03-20T14:36:23.809Z,11.72
2023-03-20T14:39:16.255Z,11.81
2023-03-20T14:42:06.004Z,11.84
2023-03-20T14:44:49.728Z,11.61
2023-03-20T14:47:28.337Z,11.54
2023-03-20T14:50:03.844Z,11.28
2023-03-20T14:52:44.641Z,11.36
2023-03-20T14:55:32.333Z,11.36
2023-03-20T14:58:05.006Z,11.23
2023-03-20T15:00:37.787Z,11.28
2023-03-20T15:03:09.662Z,11.15
2023-03-20T15:05:40.732Z,11.22
2023-03-20T15:08:15.218Z,11.14
2023-03-20T15:10:51.017Z,11.17
2023-03-20T15:13:20.676Z,11.22
2023-03-20T15:15:57.909Z,11.05
2023-03-20T15:18:28.819Z,11.10
2023-03-20T15:20:58.375Z,11.24
2023-03-20T15:23:28.127Z,11.06
2023-03-20T15:25:56.825Z,10.91
2023-03-20T15:28:26.985Z,10.96
2023-03-20T15:30:59.467Z,11.01
2023-03-20T15:33:30.552Z,11.08
2023-03-20T15:36:00.343Z,10.99
2023-03-20T15:38:35.611Z,11.07
2023-03-20T15:41:06.799Z,11.08
2023-03-20T15:43:38.316Z,11.10
2023-03-20T15:46:18.099Z,11.08
2023-03-20T15:48:50.746Z,11.08
2023-03-20T15:51:20.136Z,10.98
2023-03-20T15:53:51.106Z,10.99
2023-03-20T15:56:21.520Z,10.96
2023-03-20T15:58:54.056Z,10.98
2023-03-20T16:01:25.173Z,10.77
2023-03-20T16:03:59.026Z,10.75
2023-03-20T16:06:29.499Z,10.67
2023-03-20T16:09:01.154Z,10.60
2023-03-20T16:11:39.481Z,10.66
2023-03-20T16:14:09.959Z,10.69
2023-03-20T16:16:38.678Z,10.60
2023-03-20T16:19:08.719Z,10.51
2023-03-20T16:21:41.900Z,10.48
2023-03-20T16:24:19.328Z,10.44
2023-03-20T16:26:51.693Z,10.41
2023-03-20T16:29:22.086Z,10.33
2023-03-20T16:31:55.894Z,10.32
2023-03-20T16:34:27.137Z,10.26
2023-03-20T16:36:58.935Z,10.21
2023-03-20T16:39:30.883Z,10.16
2023-03-20T16:42:25.673Z,10.12
2023-03-20T16:44:57.200Z,10.10
2023-03-20T16:47:34.509Z,10.07
2023-03-20T16:50:18.373Z,9.97
2023-03-20T16:52:51.245Z,9.98
2023-03-20T16:55:28.374Z,9.83
2023-03-20T16:58:00.288Z,9.86
2023-03-20T17:00:34.193Z,9.82
2023-03-20T17:03:11.250Z,9.73
2023-03-20T17:05:51.654Z,9.72
2023-03-20T17:08:34.151Z,9.82
2023-03-20T17:11:07.234Z,9.72
2023-03-20T17:13:36.100Z,9.65
2023-03-20T17:16:04.728Z,9.49
2023-03-20T17:18:33.722Z,9.43
2023-03-20T17:21:04.094Z,9.42
2023-03-20T17:23:34.660Z,9.36
2023-03-20T17:26:06.955Z,9.30
2023-03-20T17:28:39.090Z,9.28
2023-03-20T17:31:10.571Z,9.23
2023-03-20T17:33:39.854Z,9.10
2023-03-20T17:36:16.356Z,9.04
2023-03-20T17:38:47.196Z,9.06
2023-03-20T17:41:18.426Z,9.05
2023-03-20T17:43:47.437Z,9.00
2023-03-20T17:46:19.575Z,9.05
2023-03-20T17:48:48.903Z,8.95
2023-03-20T17:51:17.584Z,8.89
2023-03-20T17:53:46.172Z,8.88
2023-03-20T17:56:17.830Z,8.80
2023-03-20T17:58:46.124Z,8.74
2023-03-20T18:01:16.198Z,8.68
2023-03-20T18:03:45.232Z,8.63
2023-03-20T18:06:21.908Z,8.68
2023-03-20T18:08:50.597Z,8.67
2023-03-20T18:11:21.187Z,8.59
2023-03-20T18:13:51.390Z,8.67
2023-03-20T18:16:23.065Z,8.65
2023-03-20T18:18:52.921Z,8.61
2023-03-20T18:21:21.830Z,8.54
2023-03-20T18:23:50.810Z,8.55
2023-03-20T18:26:22.869Z,8.52
2023-03-20T18:28:53.741Z,8.48
2023-03-20T18:31:23.682Z,8.41
2023-03-20T18:33:56.420Z,8.35
2023-03-20T18:36:26.243Z,8.27
2023-03-20T18:38:55.619Z,8.23
2023-03-20T18:41:25.812Z,8.16
2023-03-20T18:43:55.741Z,8.16
2023-03-20T18:46:26.488Z,8.12
2023-03-20T18:48:55.550Z,8.11
2023-03-20T18:51:25.651Z,8.08
2023-03-20T18:57:45.379Z,7.91
2023-03-20T19:00:21.661Z,7.80
2023-03-20T19:02:50.913Z,7.81
2023-03-20T19:05:20.822Z,7.79
2023-03-20T19:07:50.650Z,7.79
2023-03-20T19:10:29.895Z,7.76
2023-03-20T19:13:02.444Z,7.76
2023-03-20T19:15:35.745Z,7.81
2023-03-20T19:18:05.022Z,7.83
2023-03-20T19:20:36.864Z,7.82
2023-03-20T19:23:07.330Z,7.83
2023-03-20T19:25:36.546Z,7.89
2023-03-20T19:28:07.754Z,7.91
2023-03-20T19:30:39.704Z,7.94
2023-03-20T19:33:09.512Z,7.94
2023-03-20T19:35:58.817Z,7.97
2023-03-20T19:38:28.627Z,7.95
2023-03-20T19:41:01.987Z,7.99
2023-03-20T19:43:32.408Z,7.98
2023-03-20T19:46:01.632Z,7.93
2023-03-20T19:48:46.956Z,7.92
2023-03-20T19:51:23.807Z,7.88
2023-03-20T19:53:54.570Z,7.82
2023-03-20T19:56:24.734Z,7.81
2023-03-20T19:58:55.625Z,7.70
2023-03-20T20:01:27.305Z,7.70
2023-03-20T20:03:58.056Z,7.65
2023-03-20T20:06:31.113Z,7.59
2023-03-20T20:09:01.589Z,7.53
2023-03-20T20:11:35.471Z,7.49
2023-03-20T20:14:10.568Z,7.42
2023-03-20T20:16:43.327Z,7.37
2023-03-20T20:19:13.598Z,7.34
2023-03-20T20:22:19.663Z,7.33
2023-03-20T20:24:34.986Z,7.29
2023-03-20T20:27:17.237Z,7.28
2023-03-20T20:29:50.813Z,7.24
2023-03-20T20:32:21.862Z,7.22
2023-03-20T20:40:31.179Z,7.33
2023-03-20T20:43:02.610Z,7.38
2023-03-20T20:45:33.724Z,7.43
2023-03-20T20:48:04.220Z,7.45
2023-03-20T20:50:39.541Z,7.48
2023-03-20T20:53:09.176Z,7.25
2023-03-20T20:55:38.274Z,7.44
2023-03-20T20:58:09.370Z,7.44
2023-03-20T21:00:51.247Z,7.41
2023-03-20T21:03:22.795Z,7.37
2023-03-20T21:05:51.509Z,7.36
2023-03-20T21:08:21.302Z,7.37
2023-03-20T21:10:51.112Z,7.29
2023-03-20T21:13:20.542Z,7.30
2023-03-20T21:15:58.978Z,7.31
2023-03-20T21:18:29.700Z,7.30
2023-03-20T21:21:05.839Z,7.18
2023-03-20T21:23:34.378Z,7.17
2023-03-20T21:26:03.034Z,7.19
2023-03-20T21:28:32.031Z,7.23
2023-03-20T21:31:23.224Z,7.32
2023-03-20T21:33:56.130Z,7.36
2023-03-20T21:36:24.885Z,7.43
2023-03-20T21:39:09.778Z,7.46
2023-03-20T21:41:39.600Z,7.44
2023-03-20T21:44:16.785Z,7.36
2023-03-20T22:01:41.967Z,7.10
2023-03-20T22:04:45.012Z,6.92
2023-03-20T22:12:54.206Z,6.67
2023-03-20T22:18:19.463Z,6.54
2023-03-20T22:24:12.555Z,6.55
2023-03-20T22:41:39.376Z,6.31
2023-03-20T22:44:13.690Z,6.36
2023-03-20T22:46:22.640Z,6.41
2023-03-20T22:48:52.399Z,6.47
2023-03-20T22:51:28.639Z,6.52
2023-03-20T22:54:02.881Z,6.57
2023-03-20T22:56:31.067Z,6.63
2023-03-20T22:58:59.361Z,6.67
2023-03-20T23:01:27.998Z,6.70
2023-03-20T23:03:56.188Z,6.75
2023-03-20T23:06:26.457Z,6.76
2023-03-20T23:08:58.417Z,6.76
2023-03-20T23:11:29.842Z,6.73
2023-03-20T23:13:58.469Z,6.77
2023-03-20T23:16:26.761Z,6.74
2023-03-20T23:18:55.102Z,6.76
2023-03-20T23:21:23.545Z,6.72
2023-03-20T23:23:51.967Z,6.69
2023-03-20T23:26:22.202Z,6.69
2023-03-20T23:28:53.491Z,6.69
2023-03-20T23:31:24.113Z,6.69
2023-03-20T23:33:55.024Z,6.82
2023-03-20T23:36:35.295Z,6.82
2023-03-20T23:39:05.500Z,6.80
2023-03-20T23:42:04.702Z,6.79
2023-03-20T23:44:24.076Z,6.78
2023-03-20T23:46:52.373Z,6.74
2023-03-20T23:49:20.831Z,6.61
2023-03-20T23:51:49.054Z,6.63
2023-03-20T23:54:17.352Z,6.57
2023-03-20T23:56:45.916Z,6.59
2023-03-20T23:59:21.552Z,6.62
